createdAt,value
2024-01-31T00:04:05.997Z,149070.84
2024-01-31T00:09:07.788Z,149105.47
2024-01-31T00:14:09.703Z,148987.53
2024-01-31T00:19:11.822Z,148984.97
2024-01-31T00:24:13.596Z,148958.06
2024-01-31T00:29:15.399Z,149010.59
2024-01-31T00:34:17.298Z,148993.94
2024-01-31T00:39:21.774Z,149045.19
2024-01-31T00:44:23.690Z,149019.56
2024-01-31T00:49:26.485Z,149083.66
2024-01-31T00:54:28.504Z,149058.03
2024-01-31T00:59:30.262Z,148987.53
2024-01-31T01:04:32.204Z,149115.72
2024-01-31T01:09:35.714Z,149109.28
2024-01-31T01:14:37.482Z,149137.53
2024-01-31T01:19:39.266Z,149046.47
2024-01-31T01:24:40.985Z,149074.69
2024-01-31T01:29:42.865Z,149109.28
2024-01-31T01:34:44.738Z,149197.78
2024-01-31T01:39:47.055Z,149211.88
2024-01-31T01:44:50.934Z,149143.91
2024-01-31T01:49:52.856Z,149060.59
2024-01-31T01:54:54.897Z,149168.25
2024-01-31T01:59:56.758Z,149202.94
2024-01-31T02:04:59.687Z,149149.06
2024-01-31T02:10:01.969Z,149101.59
2024-01-31T02:15:04.034Z,149126.00
2024-01-31T02:20:06.826Z,149111.84
2024-01-31T02:25:15.431Z,149254.22
2024-01-31T02:30:17.629Z,149164.44
2024-01-31T02:35:19.614Z,149224.75
2024-01-31T02:40:23.369Z,149233.69
2024-01-31T02:45:25.416Z,149247.81
2024-01-31T02:50:28.459Z,149191.41
2024-01-31T02:55:30.180Z,149182.41
2024-01-31T03:00:32.242Z,149234.94
2024-01-31T03:05:34.142Z,149229.84
2024-01-31T03:10:36.205Z,149314.53
2024-01-31T03:15:38.050Z,149292.72
2024-01-31T03:20:39.826Z,149396.63
2024-01-31T03:25:41.676Z,149254.22
2024-01-31T03:30:43.361Z,149222.13
2024-01-31T03:35:45.043Z,149220.84
2024-01-31T03:40:47.174Z,149376.09
2024-01-31T03:45:48.918Z,149256.75
2024-01-31T03:50:50.730Z,149274.75
2024-01-31T03:55:52.607Z,149249.09
2024-01-31T04:00:54.639Z,149369.72
2024-01-31T04:05:56.845Z,149267.03
2024-01-31T04:10:58.600Z,149256.75
2024-01-31T04:16:00.314Z,149260.63
2024-01-31T04:21:02.165Z,149278.56
2024-01-31T04:26:04.030Z,149240.13
2024-01-31T04:31:05.959Z,149197.78
2024-01-31T04:36:07.966Z,149249.09
2024-01-31T04:41:09.987Z,149310.66
2024-01-31T04:46:14.561Z,149238.84
2024-01-31T04:51:16.430Z,149245.22
2024-01-31T04:56:19.452Z,149213.16
2024-01-31T05:01:21.275Z,149254.22
2024-01-31T05:06:23.056Z,149277.28
2024-01-31T05:11:24.993Z,149377.38
2024-01-31T05:16:26.782Z,149236.28
2024-01-31T05:21:28.570Z,149158.06
2024-01-31T05:26:30.397Z,149159.31
2024-01-31T05:31:32.242Z,149113.13
2024-01-31T05:36:34.114Z,149267.03
2024-01-31T05:41:35.815Z,149234.94
2024-01-31T05:46:37.679Z,149114.44
2024-01-31T05:51:40.007Z,149120.84
2024-01-31T05:56:42.284Z,149045.19
2024-01-31T06:01:44.099Z,149132.38
2024-01-31T06:06:45.848Z,149117.00
2024-01-31T06:11:47.764Z,149111.84
2024-01-31T06:16:49.603Z,149061.88
2024-01-31T06:21:51.478Z,148969.63
2024-01-31T06:26:53.432Z,148958.06
2024-01-31T06:32:00.834Z,149102.91
2024-01-31T06:37:03.220Z,149122.13
2024-01-31T06:42:08.090Z,149145.19
2024-01-31T06:47:09.757Z,149040.09
2024-01-31T06:52:11.900Z,148982.41
2024-01-31T06:57:13.893Z,149002.94
2024-01-31T07:02:15.857Z,149009.31
2024-01-31T07:07:17.693Z,148977.25
2024-01-31T07:12:20.332Z,148967.00
2024-01-31T07:17:22.042Z,148988.81
2024-01-31T07:22:24.046Z,148984.97
2024-01-31T07:27:25.842Z,148979.88
2024-01-31T07:32:28.024Z,148956.75
2024-01-31T07:37:30.058Z,149020.84
2024-01-31T07:42:31.828Z,149070.84
2024-01-31T07:47:33.919Z,149134.94
2024-01-31T07:52:35.769Z,149170.88
2024-01-31T07:57:37.589Z,149131.09
2024-01-31T08:02:39.409Z,149202.94
2024-01-31T08:07:48.295Z,149201.59
2024-01-31T08:12:51.081Z,149237.56
2024-01-31T08:17:54.235Z,149237.56
2024-01-31T08:22:56.447Z,149274.75
2024-01-31T08:27:58.127Z,149358.09
2024-01-31T08:33:00.927Z,149360.72
2024-01-31T08:38:02.749Z,149354.28
2024-01-31T08:43:04.891Z,149400.47
2024-01-31T08:48:07.132Z,149449.25
2024-01-31T08:53:08.822Z,149489.03
2024-01-31T08:58:10.520Z,149505.75
2024-01-31T09:03:12.231Z,149568.63
2024-01-31T09:08:13.989Z,149507.03
2024-01-31T09:13:15.730Z,149509.56
2024-01-31T09:18:17.464Z,149598.19
2024-01-31T09:23:19.309Z,149735.59
2024-01-31T09:28:21.309Z,149625.13
2024-01-31T09:33:23.161Z,149603.34
2024-01-31T09:38:26.903Z,149622.56
2024-01-31T09:43:28.621Z,149609.72
2024-01-31T09:48:31.985Z,149697.06
2024-01-31T09:53:37.369Z,149700.91
2024-01-31T09:58:40.547Z,149709.91
2024-01-31T10:03:42.557Z,149756.16
2024-01-31T10:08:44.279Z,149802.41
2024-01-31T10:13:48.156Z,149821.69
2024-01-31T10:18:52.093Z,149820.41
2024-01-31T10:24:01.343Z,149828.13
2024-01-31T10:29:09.549Z,149838.44
2024-01-31T10:34:14.685Z,149864.13
2024-01-31T10:39:19.976Z,149932.25
2024-01-31T10:44:22.704Z,149957.94
2024-01-31T10:49:24.736Z,149951.53
2024-01-31T10:54:30.722Z,149973.41
2024-01-31T10:59:37.752Z,149999.09
2024-01-31T11:04:40.301Z,149978.50
2024-01-31T11:09:42.831Z,149941.25
2024-01-31T11:14:47.201Z,149963.09
2024-01-31T11:19:57.864Z,149939.97
2024-01-31T11:25:00.673Z,149942.53
2024-01-31T11:30:04.299Z,149960.53
2024-01-31T11:35:06.462Z,149972.13
2024-01-31T11:40:08.816Z,149995.25
2024-01-31T11:45:11.021Z,150062.13
2024-01-31T11:50:12.809Z,149996.53
2024-01-31T11:55:23.722Z,150069.81
2024-01-31T12:00:26.436Z,150045.38
2024-01-31T12:05:28.964Z,150063.41
2024-01-31T12:10:31.297Z,150090.41
2024-01-31T12:15:33.551Z,150056.94
2024-01-31T12:20:35.755Z,150054.38
2024-01-31T12:25:37.547Z,150008.09
2024-01-31T12:30:39.317Z,149993.97
2024-01-31T12:35:41.208Z,149991.38
2024-01-31T12:40:42.971Z,150010.66
2024-01-31T12:45:45.285Z,149986.25
2024-01-31T12:50:47.103Z,150014.50
2024-01-31T12:55:48.821Z,149999.09
2024-01-31T13:00:50.685Z,150014.50
2024-01-31T13:05:52.477Z,150017.13
2024-01-31T13:10:54.743Z,150001.66
2024-01-31T13:15:56.874Z,150000.38
2024-01-31T13:20:59.949Z,150031.25
2024-01-31T13:26:01.913Z,150091.66
2024-01-31T13:31:03.811Z,150141.88
2024-01-31T13:36:07.001Z,150158.63
2024-01-31T13:41:10.337Z,150199.81
2024-01-31T13:46:12.110Z,150183.03
2024-01-31T13:51:14.381Z,150127.72
2024-01-31T13:56:16.189Z,150175.38
2024-01-31T14:01:17.993Z,150197.25
2024-01-31T14:06:19.825Z,150296.31
2024-01-31T14:11:22.038Z,150275.72
2024-01-31T14:16:23.807Z,150197.25
2024-01-31T14:21:25.525Z,150213.94
2024-01-31T14:26:27.447Z,150186.94
2024-01-31T14:31:29.226Z,150161.22
2024-01-31T14:36:30.908Z,150186.94
2024-01-31T14:41:32.762Z,150136.69
2024-01-31T14:46:34.633Z,150165.06
2024-01-31T14:51:36.382Z,150130.28
2024-01-31T14:56:49.349Z,150078.81
2024-01-31T15:01:51.149Z,150086.56
2024-01-31T15:06:53.862Z,150085.28
2024-01-31T15:11:58.419Z,150073.69
2024-01-31T15:17:02.333Z,150078.81
2024-01-31T15:22:04.402Z,150081.38
2024-01-31T15:27:06.240Z,150050.56
2024-01-31T15:32:11.005Z,150049.22
2024-01-31T15:37:13.698Z,150019.69
2024-01-31T15:42:15.466Z,150028.69
2024-01-31T15:47:17.852Z,150011.94
2024-01-31T15:52:19.711Z,149996.53
2024-01-31T15:57:21.500Z,149963.09
2024-01-31T16:02:23.389Z,149975.94
2024-01-31T16:07:25.153Z,149969.50
2024-01-31T16:12:26.952Z,149984.97
2024-01-31T16:17:28.764Z,149966.94
2024-01-31T16:22:33.122Z,149963.09
2024-01-31T16:27:36.745Z,149945.09
2024-01-31T16:32:39.790Z,149957.94
2024-01-31T16:37:41.674Z,149961.81
2024-01-31T16:42:43.604Z,149893.69
2024-01-31T16:47:46.494Z,149884.69
2024-01-31T16:52:48.230Z,149888.53
2024-01-31T16:57:49.932Z,149889.81
2024-01-31T17:02:51.730Z,149912.94
2024-01-31T17:07:53.555Z,150008.09
2024-01-31T17:12:55.282Z,149923.22
2024-01-31T17:17:57.428Z,149888.53
2024-01-31T17:23:01.185Z,149870.50
2024-01-31T17:28:02.985Z,149919.38
2024-01-31T17:33:05.110Z,149901.38
2024-01-31T17:38:06.917Z,149910.38
2024-01-31T17:43:08.978Z,149930.97
2024-01-31T17:48:10.955Z,149844.81
2024-01-31T17:53:12.800Z,149819.13
2024-01-31T17:58:14.649Z,149821.69
2024-01-31T18:03:16.459Z,149785.72
2024-01-31T18:08:18.252Z,149805.00
2024-01-31T18:13:19.983Z,149833.25
2024-01-31T18:18:24.983Z,149776.72
2024-01-31T18:23:29.055Z,149830.69
2024-01-31T18:28:30.914Z,149805.00
2024-01-31T18:33:32.913Z,149801.13
2024-01-31T18:38:34.960Z,149833.25
2024-01-31T18:43:37.462Z,149767.72
2024-01-31T18:48:39.739Z,149715.09
2024-01-31T18:53:43.659Z,149709.91
2024-01-31T18:58:46.009Z,149725.31
2024-01-31T19:03:47.833Z,149698.34
2024-01-31T19:08:50.180Z,149695.78
2024-01-31T19:13:59.060Z,149704.78
2024-01-31T19:19:01.207Z,149761.31
2024-01-31T19:24:03.685Z,149757.44
2024-01-31T19:29:05.874Z,149691.91
2024-01-31T19:34:07.817Z,149659.84
2024-01-31T19:39:09.938Z,149612.28
2024-01-31T19:44:12.009Z,149598.19
2024-01-31T19:49:13.962Z,149618.72
2024-01-31T19:54:15.990Z,149599.44
2024-01-31T19:59:18.064Z,149541.69
2024-01-31T20:04:19.945Z,149423.56
2024-01-31T20:09:21.884Z,149396.63
2024-01-31T20:14:24.057Z,149327.34
2024-01-31T20:19:25.920Z,149282.44
2024-01-31T20:24:28.645Z,149201.59
2024-01-31T20:29:30.512Z,149211.88
2024-01-31T20:34:32.456Z,149193.94
2024-01-31T20:39:36.855Z,149178.53
2024-01-31T20:44:39.049Z,149037.53
2024-01-31T20:49:43.261Z,148981.16
2024-01-31T20:54:47.854Z,148942.66
2024-01-31T20:59:49.641Z,149036.25
2024-01-31T21:04:51.369Z,148963.19
2024-01-31T21:09:53.239Z,148926.03
2024-01-31T21:14:55.169Z,148934.97
2024-01-31T21:19:57.349Z,148918.34
2024-01-31T21:24:59.421Z,148945.22
2024-01-31T21:30:01.992Z,148950.38
2024-01-31T21:35:04.869Z,148963.19
2024-01-31T21:40:07.202Z,148910.63
2024-01-31T21:45:10.011Z,148911.91
2024-01-31T21:50:11.854Z,148950.38
2024-01-31T21:55:13.511Z,148906.81
2024-01-31T22:00:15.845Z,148918.34
2024-01-31T22:05:17.870Z,148874.78
2024-01-31T22:10:19.675Z,148805.63
2024-01-31T22:15:21.458Z,148750.53
2024-01-31T22:20:24.175Z,148708.28
2024-01-31T22:25:25.933Z,148730.06
2024-01-31T22:30:27.864Z,148790.22
2024-01-31T22:35:29.536Z,148690.34
2024-01-31T22:40:32.003Z,148613.56
2024-01-31T22:45:33.723Z,148608.44
2024-01-31T22:50:35.624Z,148639.16
2024-01-31T22:55:37.499Z,148662.19
2024-01-31T23:00:39.276Z,148573.88
2024-01-31T23:05:41.283Z,148625.09
2024-01-31T23:10:43.127Z,148628.91
2024-01-31T23:15:44.859Z,148631.47
2024-01-31T23:20:46.618Z,148598.19
2024-01-31T23:25:48.362Z,148507.34
2024-01-31T23:30:51.736Z,148534.19
2024-01-31T23:35:53.613Z,148477.91
2024-01-31T23:40:55.502Z,148509.91
2024-01-31T23:45:57.320Z,148586.66
2024-01-31T23:50:59.074Z,148548.31
2024-01-31T23:56:01.188Z,148562.38
